Yeager Airport
KCRW : now visible

Airfield :











YOU CAN JOIN US ON...

 
LOGIN :

Register | Disclaimer

   EN    FR    IT 

 









Legend :    VFR   Marginal VFR   IFR   Intensive IFR   Very Intensive IFR
Visi :
Ceiling :
>= 8 km
>= 3000ft
5 to 8 km
1000 to 3000 ft
1500m to 5 km
500 to 1000 ft
800 to 1500m
200 to 500 ft
< 800m
< 200 ft
Symbols :   Thunderstorms  Fog  Heavy snow  Heavy precipitations  Wind > 20 kt






- Airport Elevation : 981 ft
- IATA code : CRW


KCRW - Yeager

CURRENT METAR :
  • 282154Z 30008G18KT 10SM SCT110 25/10 A2994 RMK AO2 SLP130 T02500100

EXPIRED METARs :
  • 282054Z 31010G16KT 10SM FEW070 BKN120 25/11 A2992 RMK AO2 SLP126 T02500106 56007
  • 281954Z 26009G15KT 10SM BKN070 26/11 A2992 RMK AO2 SLP125 T02610111
  • 281854Z 28008G19KT 220V350 10SM BKN060 26/11 A2993 RMK AO2 SLP127 T02560106
  • 281754Z 28007G15KT 240V310 10SM BKN055 24/12 A2994 RMK AO2 SLP132 T02440117 10256 20178 55001

TAF KCRW
Valid from the 28 at 18:00 until the 29 at 18:00 UTC


281720Z 2818/2918 29009G18KT P6SM BKN040
FM282100 29009G18KT P6SM VCTS SCT070CB
FM282300 30008KT P6SM SCT170
FM291500 28008G15KT P6SM BKN080
KZID FIR / North America



MET'MAP, your aeronautical weather chart ! - Copyright ORBIFLY December 2007 - Disclaimer

ORBIFLY MET'MAP TEAM :

Programming & Development : Alexandra Zaïnal
Original concept : Baudouin d'Aumeries
Technical & hardware support : Manuel Goepfert
Assistance : Marc-Olivier Méhu




SOURCES & CREDITS :

   NOAA       Earth
Advisory